KINS

Creech AFB Airport

Indian Springs, Nevada, USA
METAR KINS 141658Z AUTO 00000KT 10SM FEW200 00/M11 A3033 RMK AO2 SLP278 T00031114 $
Observed Flight Rules
Dec-14 @ 16:58 UTC (37 minutes ago) Visual Flight Rules
Visibility Clouds
10 miles
  • Few at 20,000' AGL
Temperatures Readings
Current 0°C / 32°F
Dewpoint -11°C / 12°F
Humidity 44%
Altimeter 30.33" Hg
Pressure 1027.8 hPa
Elevation 955
METAR KINS 141658Z AUTO 00000KT 10SM FEW200 00/M11 A3033 RMK AO2 SLP278 T00031114 $
Observed Flight Rules
Dec-14 @ 16:58 UTC
(37 minutes ago)
VFR
Clouds
  • Few at 20,000' AGL
Temperature Dewpoint
0°C / 32°F -11°C / 12°F
Humidity Altimeter Pressure
44% 30.33" Hg 1027.8 hPa